createdAt,value
2018-09-19T00:01:16.593Z,22.20
2018-09-19T00:03:44.775Z,22.10
2018-09-19T00:06:13.005Z,22.00
2018-09-19T00:08:41.212Z,22.00
2018-09-19T00:11:09.688Z,22.10
2018-09-19T00:13:37.927Z,22.00
2018-09-19T00:16:07.004Z,21.90
2018-09-19T00:18:35.186Z,21.80
2018-09-19T00:21:03.523Z,21.70
2018-09-19T00:23:31.882Z,21.70
2018-09-19T00:26:00.086Z,21.70
2018-09-19T00:28:28.406Z,21.70
2018-09-19T00:30:56.617Z,21.60
2018-09-19T00:33:24.825Z,21.60
2018-09-19T00:35:53.078Z,21.50
2018-09-19T00:38:21.342Z,21.50
2018-09-19T00:40:49.556Z,21.40
2018-09-19T00:43:17.716Z,21.40
2018-09-19T00:45:45.912Z,21.40
2018-09-19T00:48:14.092Z,21.50
2018-09-19T00:50:42.331Z,21.40
2018-09-19T00:53:10.603Z,21.50
2018-09-19T00:55:38.870Z,21.40
2018-09-19T00:58:07.042Z,21.50
2018-09-19T01:00:35.274Z,21.40
2018-09-19T01:03:03.580Z,21.30
2018-09-19T01:05:31.796Z,21.20
2018-09-19T01:08:00.112Z,21.00
2018-09-19T01:10:28.332Z,20.90
2018-09-19T01:12:56.574Z,20.80
2018-09-19T01:15:24.812Z,20.80
2018-09-19T01:17:52.971Z,20.90
2018-09-19T01:20:21.240Z,20.80
2018-09-19T01:22:49.468Z,20.70
2018-09-19T01:25:17.783Z,20.70
2018-09-19T01:27:46.063Z,20.60
2018-09-19T01:30:14.274Z,20.50
2018-09-19T01:32:42.461Z,20.50
2018-09-19T01:35:10.764Z,20.50
2018-09-19T01:37:38.997Z,20.60
2018-09-19T01:40:07.227Z,20.60
2018-09-19T01:42:35.482Z,20.60
2018-09-19T01:45:03.779Z,20.50
2018-09-19T01:47:32.048Z,20.50
2018-09-19T01:50:00.245Z,20.40
2018-09-19T01:52:28.562Z,20.30
2018-09-19T01:54:56.822Z,20.30
2018-09-19T01:57:25.023Z,20.40
2018-09-19T01:59:53.369Z,20.30
2018-09-19T02:02:21.576Z,20.30
2018-09-19T02:04:49.781Z,20.20
2018-09-19T02:07:18.124Z,20.10
2018-09-19T02:09:46.388Z,20.10
2018-09-19T02:12:14.588Z,19.90
2018-09-19T02:14:42.849Z,19.90
2018-09-19T02:17:11.089Z,19.90
2018-09-19T02:19:39.275Z,19.90
2018-09-19T02:22:07.830Z,19.90
2018-09-19T02:24:36.089Z,19.90
2018-09-19T02:27:04.280Z,19.90
2018-09-19T02:29:32.531Z,20.00
2018-09-19T02:32:00.717Z,20.00
2018-09-19T02:34:28.988Z,19.90
2018-09-19T02:36:57.204Z,19.90
2018-09-19T02:39:25.434Z,19.90
2018-09-19T02:41:53.615Z,19.80
2018-09-19T02:44:21.888Z,19.80
2018-09-19T02:46:50.119Z,19.80
2018-09-19T02:49:18.352Z,19.80
2018-09-19T02:51:46.630Z,19.70
2018-09-19T02:54:14.943Z,19.70
2018-09-19T02:56:43.126Z,19.70
2018-09-19T02:59:11.395Z,19.70
2018-09-19T03:01:39.617Z,19.60
2018-09-19T03:04:07.883Z,19.50
2018-09-19T03:06:36.109Z,19.40
2018-09-19T03:09:05.417Z,19.40
2018-09-19T03:11:33.621Z,19.50
2018-09-19T03:14:01.810Z,19.50
2018-09-19T03:16:30.031Z,19.40
2018-09-19T03:18:58.263Z,19.40
2018-09-19T03:21:26.455Z,19.50
2018-09-19T03:23:54.693Z,19.60
2018-09-19T03:26:22.922Z,19.60
2018-09-19T03:28:51.093Z,19.50
2018-09-19T03:31:19.299Z,19.50
2018-09-19T03:33:47.535Z,19.50
2018-09-19T03:36:15.785Z,19.50
2018-09-19T03:38:44.249Z,19.50
2018-09-19T03:41:12.483Z,19.50
2018-09-19T03:43:40.778Z,19.40
2018-09-19T03:46:09.012Z,19.20
2018-09-19T03:48:37.210Z,19.00
2018-09-19T03:51:05.587Z,18.80
2018-09-19T03:53:34.047Z,18.70
2018-09-19T03:56:02.253Z,18.70
2018-09-19T03:58:30.426Z,18.70
2018-09-19T04:00:58.680Z,18.90
2018-09-19T04:03:26.919Z,18.90
2018-09-19T04:05:55.117Z,18.90
2018-09-19T04:08:23.333Z,18.80
2018-09-19T04:10:51.638Z,18.70
2018-09-19T04:13:19.858Z,18.70
2018-09-19T04:15:48.099Z,18.70
2018-09-19T04:18:16.311Z,18.70
2018-09-19T04:20:44.536Z,18.80
2018-09-19T04:23:12.825Z,18.70
2018-09-19T04:25:41.041Z,18.70
2018-09-19T04:28:09.280Z,18.80
2018-09-19T04:30:37.480Z,18.80
2018-09-19T04:33:05.702Z,18.80
2018-09-19T04:35:33.897Z,18.80
2018-09-19T04:38:02.130Z,18.70
2018-09-19T04:40:30.385Z,18.70
2018-09-19T04:42:58.548Z,18.50
2018-09-19T04:45:26.779Z,18.40
2018-09-19T04:47:55.052Z,18.30
2018-09-19T04:50:23.294Z,18.40
2018-09-19T04:52:51.541Z,18.30
2018-09-19T04:55:19.726Z,18.40
2018-09-19T04:57:47.946Z,18.30
2018-09-19T05:00:16.225Z,18.30
2018-09-19T05:02:44.420Z,18.30
2018-09-19T05:05:12.657Z,18.20
2018-09-19T05:07:40.898Z,18.30
2018-09-19T05:10:09.153Z,18.10
2018-09-19T05:12:37.406Z,18.00
2018-09-19T05:15:05.701Z,18.00
2018-09-19T05:17:33.926Z,18.00
2018-09-19T05:20:02.169Z,17.80
2018-09-19T05:22:30.365Z,18.00
2018-09-19T05:24:58.611Z,17.80
2018-09-19T05:27:26.855Z,17.80
2018-09-19T05:29:55.106Z,18.00
2018-09-19T05:32:23.351Z,18.10
2018-09-19T05:34:51.549Z,18.10
2018-09-19T05:37:19.761Z,18.10
2018-09-19T05:39:47.982Z,18.00
2018-09-19T05:42:16.283Z,18.00
2018-09-19T05:44:44.487Z,18.00
2018-09-19T05:47:12.749Z,17.90
2018-09-19T05:49:41.000Z,18.00
2018-09-19T05:52:09.232Z,18.00
2018-09-19T05:54:37.448Z,18.10
2018-09-19T05:57:05.693Z,18.10
2018-09-19T05:59:33.923Z,18.10
2018-09-19T06:02:02.309Z,18.10
2018-09-19T06:04:30.739Z,18.20
2018-09-19T06:06:59.080Z,18.20
2018-09-19T06:09:27.314Z,18.00
2018-09-19T06:11:55.650Z,18.20
2018-09-19T06:14:23.857Z,18.20
2018-09-19T06:16:52.167Z,18.50
2018-09-19T06:19:20.333Z,18.50
2018-09-19T06:21:48.515Z,18.50
2018-09-19T06:24:16.736Z,18.70
2018-09-19T06:26:44.916Z,18.90
2018-09-19T06:29:13.103Z,18.90
2018-09-19T06:31:41.353Z,18.90
2018-09-19T06:34:09.601Z,19.10
2018-09-19T06:36:37.829Z,19.40
2018-09-19T06:39:07.647Z,19.50
2018-09-19T06:41:35.851Z,19.50
2018-09-19T06:44:04.120Z,19.60
2018-09-19T06:46:32.373Z,19.90
2018-09-19T06:49:00.799Z,19.80
2018-09-19T06:51:29.188Z,19.80
2018-09-19T06:53:57.546Z,20.00
2018-09-19T06:56:25.942Z,20.30
2018-09-19T06:58:54.229Z,20.60
2018-09-19T07:01:22.591Z,21.00
2018-09-19T07:03:51.948Z,21.20
2018-09-19T07:06:20.267Z,21.20
2018-09-19T07:08:48.504Z,21.30
2018-09-19T07:11:16.723Z,21.30
2018-09-19T07:13:45.039Z,21.60
2018-09-19T07:16:13.291Z,22.10
2018-09-19T07:18:41.543Z,22.40
2018-09-19T07:21:09.764Z,22.80
2018-09-19T07:23:38.002Z,23.00
2018-09-19T07:26:06.471Z,23.20
2018-09-19T07:28:34.912Z,23.30
2018-09-19T07:31:03.473Z,23.20
2018-09-19T07:33:31.977Z,23.10
2018-09-19T07:36:00.435Z,23.40
2018-09-19T07:38:28.936Z,23.80
2018-09-19T07:40:57.404Z,24.10
2018-09-19T07:43:25.911Z,24.70
2018-09-19T07:45:54.426Z,24.70
2018-09-19T07:48:22.845Z,24.50
2018-09-19T07:50:51.379Z,24.50
2018-09-19T07:53:19.920Z,24.60
2018-09-19T07:55:48.336Z,25.10
2018-09-19T07:58:16.725Z,25.40
2018-09-19T08:00:45.301Z,25.80
2018-09-19T08:03:13.672Z,26.30
2018-09-19T08:05:42.174Z,26.70
2018-09-19T08:08:10.696Z,26.60
2018-09-19T08:10:39.246Z,26.30
2018-09-19T08:13:07.711Z,26.40
2018-09-19T08:15:36.286Z,26.70
2018-09-19T08:18:04.735Z,27.10
2018-09-19T08:20:33.159Z,27.50
2018-09-19T08:23:01.571Z,27.70
2018-09-19T08:25:30.119Z,27.80
2018-09-19T08:27:58.553Z,28.10
2018-09-19T08:30:27.080Z,28.50
2018-09-19T08:32:55.513Z,28.80
2018-09-19T08:35:24.010Z,28.90
2018-09-19T08:37:52.602Z,29.30
2018-09-19T08:40:21.156Z,29.30
2018-09-19T08:42:49.571Z,29.60
2018-09-19T08:45:18.089Z,30.20
2018-09-19T08:47:46.560Z,30.40
2018-09-19T08:50:15.073Z,30.30
2018-09-19T08:52:43.550Z,31.00
2018-09-19T08:55:12.044Z,31.40
2018-09-19T08:57:40.506Z,30.30
2018-09-19T09:00:09.760Z,30.00
2018-09-19T09:02:38.427Z,29.90
2018-09-19T09:05:07.182Z,29.90
2018-09-19T09:07:35.428Z,30.60
2018-09-19T09:10:03.640Z,31.10
2018-09-19T09:12:31.907Z,32.10
2018-09-19T09:15:00.106Z,32.40
2018-09-19T09:17:28.336Z,32.60
2018-09-19T09:19:56.569Z,32.80
2018-09-19T09:22:24.753Z,33.00
2018-09-19T09:24:52.935Z,33.10
2018-09-19T09:27:21.273Z,33.80
2018-09-19T09:29:49.444Z,33.80
2018-09-19T09:34:45.080Z,34.90
2018-09-19T09:37:13.304Z,35.70
2018-09-19T09:39:41.591Z,35.80
2018-09-19T09:42:09.845Z,35.70
2018-09-19T09:44:38.089Z,34.90
2018-09-19T09:47:06.593Z,34.50
2018-09-19T09:49:34.839Z,33.50
2018-09-19T09:52:03.115Z,34.30
2018-09-19T09:54:31.316Z,33.90
2018-09-19T09:56:59.517Z,34.10
2018-09-19T09:59:28.256Z,35.70
2018-09-19T10:01:56.543Z,36.30
2018-09-19T10:04:24.838Z,35.90
2018-09-19T10:06:53.167Z,35.90
2018-09-19T10:09:21.427Z,36.10
2018-09-19T10:11:49.664Z,36.40
2018-09-19T10:14:17.977Z,34.60
2018-09-19T10:16:46.205Z,35.40
2018-09-19T10:19:14.397Z,34.00
2018-09-19T10:21:42.689Z,35.40
2018-09-19T10:24:10.873Z,35.80
2018-09-19T10:26:39.143Z,36.20
2018-09-19T10:29:07.364Z,35.80
2018-09-19T10:31:36.504Z,35.60
2018-09-19T10:34:04.741Z,34.90
2018-09-19T10:36:32.912Z,33.80
2018-09-19T10:39:01.095Z,33.80
2018-09-19T10:41:29.348Z,32.90
2018-09-19T10:43:57.613Z,32.10
2018-09-19T10:46:25.787Z,31.70
2018-09-19T10:48:54.066Z,31.60
2018-09-19T10:51:22.304Z,31.40
2018-09-19T10:53:50.537Z,30.70
2018-09-19T10:56:18.869Z,31.10
2018-09-19T10:58:47.059Z,32.60
2018-09-19T11:01:15.231Z,31.70
2018-09-19T11:03:43.431Z,32.40
2018-09-19T11:06:11.608Z,34.10
2018-09-19T11:08:39.907Z,33.00
2018-09-19T11:11:08.305Z,32.50
2018-09-19T11:13:36.538Z,34.00
2018-09-19T11:16:04.756Z,35.40
2018-09-19T11:18:33.017Z,36.10
2018-09-19T11:21:01.257Z,36.30
2018-09-19T11:23:29.538Z,34.80
2018-09-19T11:25:57.787Z,33.50
2018-09-19T11:28:25.987Z,33.20
2018-09-19T11:30:54.410Z,32.90
2018-09-19T11:33:22.660Z,32.80
2018-09-19T11:35:50.854Z,32.60
2018-09-19T11:38:19.044Z,34.00
2018-09-19T11:40:47.297Z,35.30
2018-09-19T11:43:15.588Z,36.30
2018-09-19T11:45:43.898Z,37.10
2018-09-19T11:48:12.223Z,37.30
2018-09-19T11:50:40.509Z,37.60
2018-09-19T11:53:14.104Z,37.30
2018-09-19T11:55:42.404Z,38.00
2018-09-19T11:58:10.746Z,38.60
2018-09-19T12:00:39.570Z,38.00
2018-09-19T12:03:07.921Z,38.10
2018-09-19T12:05:36.173Z,38.60
2018-09-19T12:08:04.357Z,38.10
2018-09-19T12:10:32.532Z,36.90
2018-09-19T12:13:00.762Z,35.60
2018-09-19T12:15:28.947Z,34.90
2018-09-19T12:17:57.147Z,36.40
2018-09-19T12:20:25.419Z,37.20
2018-09-19T12:22:53.701Z,36.60
2018-09-19T12:25:21.949Z,37.00
2018-09-19T12:27:50.257Z,37.00
2018-09-19T12:30:18.597Z,37.20
2018-09-19T12:32:46.786Z,36.40
2018-09-19T12:35:15.300Z,36.40
2018-09-19T12:37:43.513Z,36.80
2018-09-19T12:40:12.224Z,35.90
2018-09-19T12:42:40.404Z,36.10
2018-09-19T12:45:08.792Z,36.50
2018-09-19T12:47:37.102Z,36.00
2018-09-19T12:50:05.401Z,36.00
2018-09-19T12:52:34.074Z,36.10
2018-09-19T12:55:02.429Z,36.30
2018-09-19T12:57:30.739Z,36.20
2018-09-19T12:59:58.968Z,35.90
2018-09-19T13:02:27.297Z,35.30
2018-09-19T13:04:55.528Z,33.90
2018-09-19T13:07:23.774Z,34.10
2018-09-19T13:09:52.022Z,34.80
2018-09-19T13:12:20.418Z,35.30
2018-09-19T13:14:48.740Z,34.50
2018-09-19T13:17:17.060Z,34.10
2018-09-19T13:19:45.304Z,34.80
2018-09-19T13:22:13.590Z,35.10
2018-09-19T13:24:41.888Z,34.90
2018-09-19T13:27:10.125Z,35.10
2018-09-19T13:29:38.380Z,35.50
2018-09-19T13:32:06.665Z,35.10
2018-09-19T13:34:34.925Z,34.20
2018-09-19T13:37:03.191Z,34.70
2018-09-19T13:39:31.362Z,35.10
2018-09-19T13:41:59.629Z,35.40
2018-09-19T13:44:28.064Z,35.50
2018-09-19T13:46:56.478Z,34.90
2018-09-19T13:49:28.083Z,34.20
2018-09-19T13:51:56.922Z,34.30
2018-09-19T13:54:25.333Z,34.10
2018-09-19T13:56:53.598Z,34.20
2018-09-19T13:59:21.861Z,34.00
2018-09-19T14:01:50.039Z,34.40
2018-09-19T14:04:18.744Z,34.40
2018-09-19T14:06:47.011Z,34.20
2018-09-19T14:09:15.308Z,33.80
2018-09-19T14:11:43.631Z,33.40
2018-09-19T14:14:11.885Z,33.50
2018-09-19T14:16:40.211Z,33.40
2018-09-19T14:19:09.016Z,32.90
2018-09-19T14:21:37.355Z,32.50
2018-09-19T14:24:05.675Z,32.20
2018-09-19T14:26:33.912Z,32.30
2018-09-19T14:29:02.247Z,32.50
2018-09-19T14:31:30.484Z,32.40
2018-09-19T14:33:58.680Z,32.20
2018-09-19T14:36:26.904Z,32.20
2018-09-19T14:38:55.177Z,32.10
2018-09-19T14:41:23.461Z,32.20
2018-09-19T14:43:51.624Z,32.10
2018-09-19T14:46:19.865Z,32.00
2018-09-19T14:48:48.174Z,32.10
2018-09-19T14:51:16.408Z,32.10
2018-09-19T14:53:44.661Z,31.90
2018-09-19T14:56:12.877Z,31.70
2018-09-19T14:58:41.121Z,31.90
2018-09-19T15:01:09.435Z,31.90
2018-09-19T15:03:37.663Z,31.90
2018-09-19T15:06:05.951Z,31.70
2018-09-19T15:08:34.297Z,31.80
2018-09-19T15:11:02.490Z,32.00
2018-09-19T15:13:30.888Z,32.10
2018-09-19T15:15:59.153Z,32.30
2018-09-19T15:18:27.410Z,32.50
2018-09-19T15:20:55.660Z,32.40
2018-09-19T15:23:23.884Z,32.20
2018-09-19T15:25:52.169Z,32.10
2018-09-19T15:28:20.414Z,31.90
2018-09-19T15:30:48.691Z,31.90
2018-09-19T15:33:16.878Z,31.80
2018-09-19T15:35:45.035Z,31.80
2018-09-19T15:38:13.354Z,31.90
2018-09-19T15:40:41.576Z,31.60
2018-09-19T15:43:09.795Z,31.60
2018-09-19T15:45:38.023Z,31.70
2018-09-19T15:48:06.292Z,31.40
2018-09-19T15:50:36.284Z,31.30
2018-09-19T15:53:05.402Z,31.20
2018-09-19T15:55:33.659Z,31.10
2018-09-19T15:58:01.909Z,31.00
2018-09-19T16:00:30.109Z,30.90
2018-09-19T16:02:58.393Z,30.90
2018-09-19T16:05:26.572Z,30.90
2018-09-19T16:07:54.834Z,30.80
2018-09-19T16:10:23.039Z,30.80
2018-09-19T16:12:51.270Z,30.70
2018-09-19T16:15:19.469Z,30.80
2018-09-19T16:17:47.707Z,30.80
2018-09-19T16:20:15.893Z,30.60
2018-09-19T16:22:44.244Z,30.50
2018-09-19T16:25:12.521Z,30.30
2018-09-19T16:27:41.265Z,30.30
2018-09-19T16:30:09.553Z,30.20
2018-09-19T16:32:37.896Z,30.10
2018-09-19T16:35:06.402Z,30.20
2018-09-19T16:37:34.595Z,30.30
2018-09-19T16:40:02.796Z,30.30
2018-09-19T16:42:31.024Z,30.10
2018-09-19T16:44:59.266Z,29.90
2018-09-19T16:47:27.526Z,29.80
2018-09-19T16:49:55.744Z,29.70
2018-09-19T16:52:23.957Z,29.60
2018-09-19T16:54:52.146Z,29.50
2018-09-19T16:57:20.354Z,29.50
2018-09-19T16:59:48.626Z,29.50
2018-09-19T17:02:16.840Z,29.50
2018-09-19T17:04:45.105Z,29.50
2018-09-19T17:07:13.278Z,29.30
2018-09-19T17:09:41.544Z,29.40
2018-09-19T17:12:09.864Z,29.20
2018-09-19T17:14:38.084Z,29.30
2018-09-19T17:17:06.301Z,29.20
2018-09-19T17:19:34.546Z,29.30
2018-09-19T17:22:02.795Z,29.20
2018-09-19T17:24:31.094Z,29.00
2018-09-19T17:26:59.468Z,28.80
2018-09-19T17:29:27.716Z,28.70
2018-09-19T17:31:55.945Z,28.70
2018-09-19T17:34:24.276Z,28.70
2018-09-19T17:36:52.511Z,28.60
2018-09-19T17:39:20.759Z,28.40
2018-09-19T17:41:49.031Z,28.20
2018-09-19T17:44:17.311Z,28.20
2018-09-19T17:46:45.600Z,28.20
2018-09-19T17:49:13.759Z,28.10
2018-09-19T17:51:41.985Z,28.00
2018-09-19T17:54:10.236Z,27.90
2018-09-19T17:56:38.441Z,27.80
2018-09-19T17:59:06.698Z,27.70
2018-09-19T18:01:35.028Z,27.60
2018-09-19T18:04:03.390Z,27.60
2018-09-19T18:06:31.795Z,27.50
2018-09-19T18:09:00.154Z,27.50
2018-09-19T18:11:28.475Z,27.50
2018-09-19T18:13:56.818Z,27.50
2018-09-19T18:16:25.118Z,27.40
2018-09-19T18:18:53.357Z,27.30
2018-09-19T18:21:21.747Z,27.20
2018-09-19T18:23:50.265Z,27.30
2018-09-19T18:26:18.548Z,27.20
2018-09-19T18:28:46.831Z,27.10
2018-09-19T18:31:18.182Z,27.20
2018-09-19T18:33:46.454Z,27.00
2018-09-19T18:36:14.758Z,27.00
2018-09-19T18:38:43.097Z,26.90
2018-09-19T18:41:11.347Z,26.80
2018-09-19T18:43:39.657Z,26.80
2018-09-19T18:46:07.890Z,26.90
2018-09-19T18:48:36.116Z,26.90
2018-09-19T18:51:04.367Z,26.70
2018-09-19T18:53:32.689Z,26.70
2018-09-19T18:56:01.026Z,26.60
2018-09-19T18:58:29.202Z,26.50
2018-09-19T19:00:57.625Z,26.60
2018-09-19T19:03:26.483Z,26.50
2018-09-19T19:05:54.768Z,26.60
2018-09-19T19:08:23.016Z,26.40
2018-09-19T19:10:51.994Z,26.40
2018-09-19T19:13:20.160Z,26.40
2018-09-19T19:15:48.442Z,26.40
2018-09-19T19:18:16.971Z,26.30
2018-09-19T19:20:45.246Z,26.40
2018-09-19T19:23:15.707Z,26.30
2018-09-19T19:25:43.955Z,26.30
2018-09-19T19:28:12.138Z,26.20
2018-09-19T19:30:40.533Z,26.10
2018-09-19T19:33:08.673Z,26.10
2018-09-19T19:35:36.924Z,26.00
2018-09-19T19:38:05.168Z,25.90
2018-09-19T19:40:33.338Z,25.90
2018-09-19T19:43:01.626Z,25.90
2018-09-19T19:45:29.975Z,25.80
2018-09-19T19:47:58.211Z,25.70
2018-09-19T19:50:26.488Z,25.70
2018-09-19T19:52:54.880Z,25.60
2018-09-19T19:55:23.161Z,25.40
2018-09-19T19:57:51.377Z,25.40
2018-09-19T20:00:19.652Z,25.40
2018-09-19T20:02:47.848Z,25.20
2018-09-19T20:05:16.163Z,25.20
2018-09-19T20:07:44.426Z,25.10
2018-09-19T20:10:12.802Z,25.10
2018-09-19T20:12:41.102Z,25.00
2018-09-19T20:15:09.252Z,25.00
2018-09-19T20:17:40.735Z,24.90
2018-09-19T20:20:09.212Z,24.90
2018-09-19T20:22:37.480Z,24.80
2018-09-19T20:25:05.714Z,24.70
2018-09-19T20:27:34.011Z,24.70
2018-09-19T20:30:02.338Z,24.60
2018-09-19T20:32:30.611Z,24.50
2018-09-19T20:34:59.193Z,24.60
2018-09-19T20:37:27.414Z,24.50
2018-09-19T20:39:55.707Z,24.40
2018-09-19T20:42:23.968Z,24.30
2018-09-19T20:44:52.252Z,24.30
2018-09-19T20:47:20.569Z,24.30
2018-09-19T20:49:48.909Z,24.20
2018-09-19T20:52:17.123Z,24.10
2018-09-19T20:54:45.417Z,24.10
2018-09-19T20:57:13.671Z,24.10
2018-09-19T20:59:41.978Z,24.00
2018-09-19T21:02:10.165Z,23.90
2018-09-19T21:04:38.532Z,23.90
2018-09-19T21:07:06.841Z,23.80
2018-09-19T21:09:35.101Z,23.70
2018-09-19T21:12:03.319Z,23.60
2018-09-19T21:14:31.556Z,23.50
2018-09-19T21:16:59.766Z,23.50
2018-09-19T21:19:28.011Z,23.50
2018-09-19T21:21:56.291Z,23.40
2018-09-19T21:24:24.504Z,23.40
2018-09-19T21:26:52.693Z,23.10
2018-09-19T21:29:20.875Z,23.20
2018-09-19T21:31:49.047Z,23.30
2018-09-19T21:34:17.340Z,23.10
2018-09-19T21:36:45.518Z,23.10
2018-09-19T21:39:13.781Z,23.10
2018-09-19T21:41:41.953Z,22.90
2018-09-19T21:44:10.180Z,22.80
2018-09-19T21:46:38.360Z,22.80
2018-09-19T21:49:06.556Z,22.80
2018-09-19T21:51:34.795Z,22.80
2018-09-19T21:54:03.031Z,22.70
2018-09-19T21:56:31.281Z,22.60
2018-09-19T21:58:59.474Z,22.60
2018-09-19T22:01:33.155Z,22.50
2018-09-19T22:04:01.373Z,22.40
2018-09-19T22:06:29.637Z,22.30
2018-09-19T22:08:57.869Z,22.30
2018-09-19T22:11:26.095Z,22.30
2018-09-19T22:13:54.347Z,22.20
2018-09-19T22:16:22.586Z,22.20
2018-09-19T22:18:50.903Z,22.20
2018-09-19T22:21:19.200Z,22.10
2018-09-19T22:23:47.417Z,22.00
2018-09-19T22:26:15.654Z,22.00
2018-09-19T22:28:43.856Z,21.90
2018-09-19T22:31:13.036Z,21.90
2018-09-19T22:33:42.128Z,21.80
2018-09-19T22:36:10.332Z,21.80
2018-09-19T22:38:38.552Z,21.80
2018-09-19T22:41:06.783Z,21.80
2018-09-19T22:43:34.960Z,21.70
2018-09-19T22:46:03.787Z,21.80
2018-09-19T22:48:32.001Z,21.80
2018-09-19T22:51:00.232Z,21.70
2018-09-19T22:53:28.697Z,21.60
2018-09-19T22:55:56.994Z,21.50
2018-09-19T22:58:25.246Z,21.50
2018-09-19T23:00:55.071Z,21.50
2018-09-19T23:03:23.959Z,21.40
2018-09-19T23:05:52.254Z,21.40
2018-09-19T23:08:20.794Z,21.40
2018-09-19T23:10:49.095Z,21.30
2018-09-19T23:13:17.365Z,21.30
2018-09-19T23:15:45.652Z,21.40
2018-09-19T23:18:13.935Z,21.40
2018-09-19T23:20:42.213Z,21.40
2018-09-19T23:23:10.591Z,21.40
2018-09-19T23:25:38.942Z,21.30
2018-09-19T23:28:07.321Z,21.30
2018-09-19T23:30:35.613Z,21.10
2018-09-19T23:33:03.905Z,21.10
2018-09-19T23:35:32.201Z,21.10
2018-09-19T23:38:00.491Z,20.90
2018-09-19T23:40:28.857Z,20.90
2018-09-19T23:42:57.192Z,20.90
2018-09-19T23:45:25.458Z,20.90
2018-09-19T23:47:53.745Z,20.70
2018-09-19T23:50:21.966Z,20.70
2018-09-19T23:52:50.731Z,20.70
2018-09-19T23:55:19.048Z,20.70
2018-09-19T23:57:47.376Z,20.60
